Time;durP1;ratioP1;P1;durP2;ratioP2;P2;SDS_P1;SDS_P2;PMS_P1;PMS_P2;Temp;Humidity;BMP_temperature;BMP_pressure;BME280_temperature;BME280_humidity;BME280_pressure;Samples;Min_cycle;Max_cycle;Signal;HPM_P1;HPM_P2
2023/04/02 00:02:23;;;;;;;3.60;1.00;;;;;;;;;;6199500;23;20167;-91
2023/04/02 00:05:49;;;;;;;1.95;0.82;;;;;;;;;;6199879;23;20187;-89
2023/04/02 00:08:57;;;;;;;2.03;0.90;;;;;;;;;;6202861;23;20192;-93
2023/04/02 00:12:14;;;;;;;1.85;0.95;;;;;;;;;;6202311;23;20171;-92
2023/04/02 00:15:46;;;;;;;1.85;0.80;;;;;;;;;;6201250;23;20192;-93
2023/04/02 00:18:54;;;;;;;1.70;0.80;;;;;;;;;;6201443;23;20168;-89
2023/04/02 00:22:19;;;;;;;1.20;0.75;;;;;;;;;;6201942;23;20179;-90
2023/04/02 00:25:27;;;;;;;2.28;1.10;;;;;;;;;;6200292;23;20168;-89
2023/04/02 00:28:32;;;;;;;2.92;1.10;;;;;;;;;;6201467;23;20156;-91
2023/04/02 00:31:39;;;;;;;4.25;1.70;;;;;;;;;;6200189;23;20168;-89
2023/04/02 00:34:44;;;;;;;2.35;1.25;;;;;;;;;;6201087;23;20199;-89
2023/04/02 00:37:52;;;;;;;8.45;3.97;;;;;;;;;;6199860;23;20175;-92
2023/04/02 00:40:57;;;;;;;4.18;1.50;;;;;;;;;;6202121;23;20183;-91
2023/04/02 00:44:02;;;;;;;1.50;1.10;;;;;;;;;;6202745;23;20188;-91
2023/04/02 00:47:12;;;;;;;0.80;0.77;;;;;;;;;;6202274;23;20191;-90
2023/04/02 00:50:21;;;;;;;1.88;1.00;;;;;;;;;;6201398;23;20592;-89
2023/04/02 00:53:29;;;;;;;4.05;1.30;;;;;;;;;;6200540;23;20295;-91
2023/04/02 00:56:37;;;;;;;1.77;1.00;;;;;;;;;;6199678;23;20247;-90
2023/04/02 00:59:49;;;;;;;2.67;0.90;;;;;;;;;;6200565;23;20151;-89
2023/04/02 01:03:15;;;;;;;1.65;0.90;;;;;;;;;;6200125;23;20254;-89
2023/04/02 01:06:21;;;;;;;4.03;2.10;;;;;;;;;;6198956;23;20191;-88
2023/04/02 01:09:31;;;;;;;2.70;1.38;;;;;;;;;;6199035;23;20663;-88
2023/04/02 01:12:45;;;;;;;2.58;1.20;;;;;;;;;;6198842;23;20164;-88
2023/04/02 01:15:53;;;;;;;4.43;1.50;;;;;;;;;;6197828;23;20264;-91
2023/04/02 01:19:02;;;;;;;2.17;1.30;;;;;;;;;;6197670;23;20502;-88
2023/04/02 01:22:12;;;;;;;1.02;0.90;;;;;;;;;;6197972;23;20219;-90
2023/04/02 01:25:23;;;;;;;7.82;2.47;;;;;;;;;;6197278;23;20191;-89
2023/04/02 01:28:32;;;;;;;2.95;1.48;;;;;;;;;;6196783;23;20232;-91
2023/04/02 01:31:40;;;;;;;2.97;1.20;;;;;;;;;;6199144;23;20200;-90
2023/04/02 01:34:47;;;;;;;2.30;1.30;;;;;;;;;;6198317;23;20195;-90
2023/04/02 01:37:55;;;;;;;4.35;1.98;;;;;;;;;;6198748;23;20263;-93
2023/04/02 01:41:04;;;;;;;1.88;1.50;;;;;;;;;;6197217;23;20490;-88
2023/04/02 01:44:11;;;;;;;2.08;1.15;;;;;;;;;;6197505;23;20220;-88
2023/04/02 01:47:18;;;;;;;2.25;1.15;;;;;;;;;;6197895;23;20156;-92
2023/04/02 01:50:30;;;;;;;3.83;1.77;;;;;;;;;;6197630;23;20236;-91
2023/04/02 01:53:35;;;;;;;3.67;1.70;;;;;;;;;;6197788;23;20198;-90
2023/04/02 01:56:41;;;;;;;4.18;1.65;;;;;;;;;;6196720;23;20284;-88
2023/04/02 01:59:46;;;;;;;0.70;0.63;;;;;;;;;;6196099;23;20151;-88
2023/04/02 02:03:02;;;;;;;3.80;1.00;;;;;;;;;;6195965;23;20228;-91
2023/04/02 02:06:11;;;;;;;1.95;1.13;;;;;;;;;;6196984;23;20207;-90
2023/04/02 02:09:21;;;;;;;3.15;1.73;;;;;;;;;;6197210;23;20178;-90
2023/04/02 02:12:26;;;;;;;5.30;2.00;;;;;;;;;;6196938;23;20211;-93
2023/04/02 02:15:33;;;;;;;3.45;1.73;;;;;;;;;;6196439;23;20202;-88
2023/04/02 02:18:38;;;;;;;5.30;1.88;;;;;;;;;;6196590;23;20168;-88
2023/04/02 02:21:53;;;;;;;4.53;1.70;;;;;;;;;;6196911;23;20239;-92
2023/04/02 02:25:00;;;;;;;3.33;1.90;;;;;;;;;;6198406;23;20172;-92
2023/04/02 02:28:07;;;;;;;11.13;3.30;;;;;;;;;;6197100;23;20152;-91
2023/04/02 02:31:17;;;;;;;7.60;3.08;;;;;;;;;;6196650;23;20203;-89
2023/04/02 02:34:29;;;;;;;6.93;3.00;;;;;;;;;;6197476;23;20228;-90
2023/04/02 02:37:39;;;;;;;10.25;3.75;;;;;;;;;;6197053;23;20168;-90
2023/04/02 02:40:45;;;;;;;6.63;2.88;;;;;;;;;;6196126;23;20167;-89
2023/04/02 02:43:56;;;;;;;5.82;2.60;;;;;;;;;;6195879;23;20282;-90
2023/04/02 02:47:05;;;;;;;7.35;2.58;;;;;;;;;;6194801;23;20152;-89
2023/04/02 02:50:14;;;;;;;4.55;1.73;;;;;;;;;;6196650;23;20168;-91
2023/04/02 02:53:22;;;;;;;4.75;2.05;;;;;;;;;;6197392;23;20171;-92
2023/04/02 02:56:29;;;;;;;8.00;3.22;;;;;;;;;;6197308;23;20267;-92
2023/04/02 02:59:34;;;;;;;5.20;2.25;;;;;;;;;;6195509;23;20501;-89
2023/04/02 03:02:42;;;;;;;3.95;2.03;;;;;;;;;;6195915;23;20240;-88
2023/04/02 03:05:53;;;;;;;2.13;1.20;;;;;;;;;;6197024;23;20698;-90
2023/04/02 03:09:04;;;;;;;3.88;1.60;;;;;;;;;;6197294;23;20180;-90
2023/04/02 03:12:21;;;;;;;2.20;1.30;;;;;;;;;;6196910;23;20509;-90
2023/04/02 03:15:29;;;;;;;4.78;0.95;;;;;;;;;;6195665;23;20203;-92
2023/04/02 03:18:38;;;;;;;1.95;1.10;;;;;;;;;;6196277;23;20167;-91
2023/04/02 03:21:48;;;;;;;7.20;1.00;;;;;;;;;;6195878;23;20176;-90
2023/04/02 03:24:58;;;;;;;4.30;1.05;;;;;;;;;;6195458;23;20615;-90
2023/04/02 03:28:05;;;;;;;2.30;1.10;;;;;;;;;;6193456;23;20216;-90
2023/04/02 03:31:14;;;;;;;1.65;0.90;;;;;;;;;;6195071;23;20196;-89
2023/04/02 03:34:24;;;;;;;3.50;1.05;;;;;;;;;;6197379;23;20172;-90
2023/04/02 03:37:31;;;;;;;6.60;1.00;;;;;;;;;;6200292;23;20171;-91
2023/04/02 03:40:40;;;;;;;2.72;0.90;;;;;;;;;;6200321;23;20223;-89
2023/04/02 03:43:47;;;;;;;2.08;1.08;;;;;;;;;;6199060;23;20167;-92
2023/04/02 03:46:56;;;;;;;2.17;1.05;;;;;;;;;;6198941;23;20167;-89
2023/04/02 03:50:06;;;;;;;2.60;1.20;;;;;;;;;;6200606;23;20493;-93
2023/04/02 03:53:12;;;;;;;16.50;6.53;;;;;;;;;;6199990;23;20164;-94
2023/04/02 03:56:23;;;;;;;12.60;5.32;;;;;;;;;;6198710;23;20211;-89
2023/04/02 03:59:34;;;;;;;5.53;2.20;;;;;;;;;;6198691;23;20229;-92
2023/04/02 04:02:51;;;;;;;3.30;1.50;;;;;;;;;;6197502;23;20156;-91
2023/04/02 04:05:59;;;;;;;2.67;1.20;;;;;;;;;;6198740;23;20524;-89
2023/04/02 04:09:08;;;;;;;4.50;1.15;;;;;;;;;;6198256;23;20168;-90
2023/04/02 04:12:22;;;;;;;5.43;2.30;;;;;;;;;;6197170;23;20168;-89
2023/04/02 04:15:30;;;;;;;6.22;2.15;;;;;;;;;;6198476;23;20274;-92
2023/04/02 04:18:39;;;;;;;10.68;3.28;;;;;;;;;;6197798;23;20562;-93
2023/04/02 04:22:18;;;;;;;9.57;2.90;;;;;;;;;;6198623;23;20215;-93
2023/04/02 04:25:29;;;;;;;5.95;2.30;;;;;;;;;;6162883;23;20179;-91
2023/04/02 04:28:43;;;;;;;10.20;3.95;;;;;;;;;;6199634;23;20221;-88
2023/04/02 04:31:49;;;;;;;9.30;3.10;;;;;;;;;;6199679;23;20171;-89
2023/04/02 04:34:59;;;;;;;11.43;3.80;;;;;;;;;;6198773;23;20659;-90
2023/04/02 04:38:08;;;;;;;11.43;3.95;;;;;;;;;;6196016;23;20199;-91
2023/04/02 04:41:15;;;;;;;17.00;4.93;;;;;;;;;;6198271;23;20150;-89
2023/04/02 04:44:26;;;;;;;10.05;2.97;;;;;;;;;;6198872;23;20168;-91
2023/04/02 04:47:36;;;;;;;4.82;1.80;;;;;;;;;;6200042;23;20167;-90
2023/04/02 04:50:47;;;;;;;9.90;2.72;;;;;;;;;;6199278;23;20175;-90
2023/04/02 04:53:59;;;;;;;5.50;1.80;;;;;;;;;;6198567;23;20179;-88
2023/04/02 04:57:17;;;;;;;5.10;1.90;;;;;;;;;;6196921;23;20195;-90
2023/04/02 05:00:27;;;;;;;12.57;3.55;;;;;;;;;;6197476;23;20494;-92
2023/04/02 05:04:02;;;;;;;3.72;1.48;;;;;;;;;;6197229;23;20179;-92
2023/04/02 05:07:11;;;;;;;5.65;2.00;;;;;;;;;;6197420;23;20259;-88
2023/04/02 05:10:20;;;;;;;6.93;2.63;;;;;;;;;;6199837;23;20209;-93
2023/04/02 05:13:30;;;;;;;6.05;1.92;;;;;;;;;;6198967;23;20243;-89
2023/04/02 05:16:40;;;;;;;4.53;2.00;;;;;;;;;;6197558;23;20204;-93
2023/04/02 05:19:48;;;;;;;4.68;1.13;;;;;;;;;;6196703;23;20168;-88
2023/04/02 05:22:56;;;;;;;2.30;1.00;;;;;;;;;;6197773;23;20188;-89
2023/04/02 05:26:05;;;;;;;5.63;1.27;;;;;;;;;;6198152;23;20171;-91
2023/04/02 05:29:12;;;;;;;3.67;1.48;;;;;;;;;;6198181;23;20243;-91
2023/04/02 05:32:21;;;;;;;2.67;1.08;;;;;;;;;;6196748;23;20172;-89
2023/04/02 05:35:30;;;;;;;2.30;1.05;;;;;;;;;;6195188;23;20172;-90
2023/04/02 05:38:37;;;;;;;2.63;0.90;;;;;;;;;;6195060;23;20216;-90
2023/04/02 05:41:44;;;;;;;3.08;1.40;;;;;;;;;;6197003;23;20220;-88
2023/04/02 05:45:04;;;;;;;9.27;2.70;;;;;;;;;;6197430;23;20172;-90
2023/04/02 05:48:15;;;;;;;14.05;3.85;;;;;;;;;;6195017;23;20168;-88
2023/04/02 05:51:22;;;;;;;3.50;1.77;;;;;;;;;;6197741;23;20171;-90
2023/04/02 05:54:31;;;;;;;7.22;1.90;;;;;;;;;;6197249;23;20619;-90
2023/04/02 05:57:38;;;;;;;8.10;2.75;;;;;;;;;;6196964;23;20242;-88
2023/04/02 06:00:52;;;;;;;4.93;1.95;;;;;;;;;;6197874;23;20168;-90
2023/04/02 06:04:05;;;;;;;5.93;2.33;;;;;;;;;;6195325;23;20196;-90
2023/04/02 06:07:16;;;;;;;7.55;2.40;;;;;;;;;;6196088;23;20718;-89
2023/04/02 06:10:29;;;;;;;5.38;2.13;;;;;;;;;;6197558;23;20168;-89
2023/04/02 06:13:35;;;;;;;2.53;1.20;;;;;;;;;;6197764;23;20623;-90
2023/04/02 06:16:44;;;;;;;8.35;1.48;;;;;;;;;;6195965;23;20187;-88
2023/04/02 06:19:52;;;;;;;4.07;1.33;;;;;;;;;;6198052;23;20188;-89
2023/04/02 06:22:59;;;;;;;3.03;1.20;;;;;;;;;;6195580;23;20163;-93
2023/04/02 06:26:06;;;;;;;3.40;1.63;;;;;;;;;;6197286;23;20560;-90
2023/04/02 06:29:14;;;;;;;3.45;1.45;;;;;;;;;;6196747;23;20550;-89
2023/04/02 06:32:20;;;;;;;5.28;1.88;;;;;;;;;;6195953;23;20167;-88
2023/04/02 06:35:27;;;;;;;4.97;1.27;;;;;;;;;;6197295;23;20175;-90
2023/04/02 06:38:40;;;;;;;3.47;1.08;;;;;;;;;;6195543;23;20168;-89
2023/04/02 06:41:54;;;;;;;1.75;1.20;;;;;;;;;;6195468;23;20244;-91
2023/04/02 06:45:37;;;;;;;2.03;1.10;;;;;;;;;;6194155;23;20680;-91
2023/04/02 06:49:03;;;;;;;3.50;1.10;;;;;;;;;;6193758;23;20167;-89
2023/04/02 06:52:15;;;;;;;2.13;1.10;;;;;;;;;;6195419;23;20168;-89
2023/04/02 06:55:32;;;;;;;5.75;1.30;;;;;;;;;;6194462;23;20171;-90
2023/04/02 06:58:38;;;;;;;2.15;1.20;;;;;;;;;;6195705;23;20249;-91
2023/04/02 07:01:46;;;;;;;3.13;1.10;;;;;;;;;;6195327;23;20726;-91
2023/04/02 07:04:51;;;;;;;3.47;1.40;;;;;;;;;;6195264;23;20171;-91
2023/04/02 07:08:02;;;;;;;4.60;1.55;;;;;;;;;;6195403;23;20163;-91
2023/04/02 07:11:07;;;;;;;1.95;1.30;;;;;;;;;;6199081;23;20185;-90
2023/04/02 07:14:46;;;;;;;3.05;1.23;;;;;;;;;;6197986;23;20215;-89
2023/04/02 07:17:53;;;;;;;3.40;1.27;;;;;;;;;;6197983;23;20208;-91
2023/04/02 07:21:07;;;;;;;2.80;1.52;;;;;;;;;;6201312;23;20251;-91
2023/04/02 07:24:14;;;;;;;1.95;1.13;;;;;;;;;;6196894;23;20264;-90
2023/04/02 07:27:19;;;;;;;3.42;1.27;;;;;;;;;;6195322;23;20156;-90
2023/04/02 07:30:24;;;;;;;2.97;1.30;;;;;;;;;;6197563;23;20172;-91
2023/04/02 07:33:30;;;;;;;2.45;1.30;;;;;;;;;;6197909;23;20164;-89
2023/04/02 07:36:35;;;;;;;3.50;1.02;;;;;;;;;;6196687;23;20192;-93
2023/04/02 07:39:42;;;;;;;3.30;1.30;;;;;;;;;;6198599;23;20608;-89
2023/04/02 07:42:47;;;;;;;1.85;1.10;;;;;;;;;;6198388;23;20152;-92
2023/04/02 07:45:52;;;;;;;5.28;1.30;;;;;;;;;;6198049;23;20176;-92
2023/04/02 07:48:57;;;;;;;2.00;1.17;;;;;;;;;;6198193;23;20276;-89
2023/04/02 07:52:02;;;;;;;5.43;1.40;;;;;;;;;;6197942;23;20179;-92
2023/04/02 07:55:11;;;;;;;2.92;1.50;;;;;;;;;;6196253;23;20246;-91
2023/04/02 07:58:16;;;;;;;1.70;1.10;;;;;;;;;;6198411;23;20280;-88
2023/04/02 08:01:48;;;;;;;2.65;1.23;;;;;;;;;;6196068;23;20167;-90
2023/04/02 08:04:53;;;;;;;2.60;1.08;;;;;;;;;;6196808;23;20148;-90
2023/04/02 08:07:58;;;;;;;2.90;1.45;;;;;;;;;;6199151;23;20187;-90
2023/04/02 08:11:08;;;;;;;4.25;1.42;;;;;;;;;;6196017;23;20236;-92
2023/04/02 08:14:36;;;;;;;1.95;1.10;;;;;;;;;;6195739;23;20179;-90
2023/04/02 08:17:41;;;;;;;3.47;1.30;;;;;;;;;;6196773;23;20242;-90
2023/04/02 08:20:53;;;;;;;2.42;1.48;;;;;;;;;;6195628;23;20646;-89
2023/04/02 08:23:58;;;;;;;5.07;1.45;;;;;;;;;;6196058;23;20164;-87
2023/04/02 08:27:05;;;;;;;3.97;1.20;;;;;;;;;;6196544;23;20187;-92
2023/04/02 08:30:13;;;;;;;2.60;1.35;;;;;;;;;;6196488;23;20219;-90
2023/04/02 08:33:18;;;;;;;7.10;3.17;;;;;;;;;;6197755;23;20179;-88
2023/04/02 08:36:27;;;;;;;9.93;3.00;;;;;;;;;;6195889;23;20187;-88
2023/04/02 08:39:34;;;;;;;3.10;1.30;;;;;;;;;;6193526;23;20171;-87
2023/04/02 08:42:43;;;;;;;4.55;2.25;;;;;;;;;;6198305;23;20217;-89
2023/04/02 08:45:57;;;;;;;3.28;1.60;;;;;;;;;;6197253;23;20714;-88
2023/04/02 08:49:03;;;;;;;4.32;2.00;;;;;;;;;;6200449;23;20212;-91
2023/04/02 08:52:19;;;;;;;8.10;3.03;;;;;;;;;;6197752;23;20686;-88
2023/04/02 08:55:31;;;;;;;6.80;2.38;;;;;;;;;;6196841;23;20172;-89
2023/04/02 08:58:41;;;;;;;8.77;3.00;;;;;;;;;;6199057;23;20219;-90
2023/04/02 09:01:57;;;;;;;4.00;1.27;;;;;;;;;;6196599;23;20167;-89
2023/04/02 09:05:03;;;;;;;4.47;1.60;;;;;;;;;;6197341;23;20187;-88
2023/04/02 09:08:20;;;;;;;4.88;2.38;;;;;;;;;;6194841;23;20172;-88
2023/04/02 09:11:26;;;;;;;4.85;2.10;;;;;;;;;;6199790;23;20168;-87
2023/04/02 09:14:36;;;;;;;3.95;2.58;;;;;;;;;;6197708;23;20179;-89
2023/04/02 09:17:42;;;;;;;6.82;2.67;;;;;;;;;;6197825;23;20204;-89
2023/04/02 09:21:16;;;;;;;7.50;3.15;;;;;;;;;;6195196;23;20251;-89
2023/04/02 09:24:21;;;;;;;4.45;1.92;;;;;;;;;;6197900;23;20167;-90
2023/04/02 09:27:27;;;;;;;10.32;5.78;;;;;;;;;;6199195;23;20427;-90
2023/04/02 09:30:41;;;;;;;4.55;1.52;;;;;;;;;;6198434;23;20294;-91
2023/04/02 09:33:47;;;;;;;5.53;2.65;;;;;;;;;;6200621;23;20212;-91
2023/04/02 09:36:53;;;;;;;3.13;1.58;;;;;;;;;;6200148;23;20199;-88
2023/04/02 09:40:10;;;;;;;3.80;1.85;;;;;;;;;;6199666;23;20155;-89
2023/04/02 09:43:16;;;;;;;4.20;2.20;;;;;;;;;;6198610;23;20264;-90
2023/04/02 09:46:24;;;;;;;3.33;1.67;;;;;;;;;;6200003;23;20273;-88
2023/04/02 09:49:30;;;;;;;1.30;1.02;;;;;;;;;;6196871;23;20171;-88
2023/04/02 09:52:38;;;;;;;3.15;1.48;;;;;;;;;;6200002;23;20175;-88
2023/04/02 09:55:44;;;;;;;2.38;1.60;;;;;;;;;;6200153;23;20244;-88
2023/04/02 09:59:02;;;;;;;3.55;1.52;;;;;;;;;;6199591;23;20256;-90
2023/04/02 10:06:24;;;;;;;3.15;1.60;;;;;;;;;;6201185;23;20187;-91
2023/04/02 10:09:29;;;;;;;2.15;1.30;;;;;;;;;;6199934;23;20231;-90
2023/04/02 10:12:39;;;;;;;2.30;1.33;;;;;;;;;;6198145;23;20167;-90
2023/04/02 10:15:47;;;;;;;1.48;1.13;;;;;;;;;;6196505;23;20212;-86
2023/04/02 10:18:55;;;;;;;3.88;1.25;;;;;;;;;;6197641;23;20203;-90
2023/04/02 10:22:28;;;;;;;4.35;1.30;;;;;;;;;;6198860;23;20167;-89
2023/04/02 10:25:40;;;;;;;1.95;1.40;;;;;;;;;;6198551;23;20168;-91
2023/04/02 10:28:51;;;;;;;1.88;1.38;;;;;;;;;;6197638;23;20168;-89
2023/04/02 10:32:01;;;;;;;3.53;1.50;;;;;;;;;;6198619;23;20171;-90
2023/04/02 10:35:10;;;;;;;2.90;1.45;;;;;;;;;;6198747;23;20195;-89
2023/04/02 10:38:31;;;;;;;3.28;1.48;;;;;;;;;;6198566;23;20200;-88
2023/04/02 10:41:41;;;;;;;2.33;1.48;;;;;;;;;;6197925;23;20167;-87
2023/04/02 10:44:50;;;;;;;3.33;1.63;;;;;;;;;;6199070;23;20172;-88
2023/04/02 10:47:58;;;;;;;5.55;2.83;;;;;;;;;;6199554;23;20614;-89
2023/04/02 10:51:06;;;;;;;24.55;7.93;;;;;;;;;;6198106;23;20283;-91
2023/04/02 10:54:29;;;;;;;9.85;4.05;;;;;;;;;;6198867;23;20225;-87
2023/04/02 10:57:39;;;;;;;4.20;2.28;;;;;;;;;;6199436;23;20191;-88
2023/04/02 11:00:45;;;;;;;8.73;2.50;;;;;;;;;;6201516;23;20183;-90
2023/04/02 11:04:24;;;;;;;3.38;1.88;;;;;;;;;;6201256;23;20164;-90
2023/04/02 11:07:31;;;;;;;4.82;2.25;;;;;;;;;;6199081;23;20211;-87
2023/04/02 11:10:39;;;;;;;4.22;1.75;;;;;;;;;;6198479;23;20168;-88
2023/04/02 11:13:51;;;;;;;4.55;1.58;;;;;;;;;;6198472;23;20176;-91
2023/04/02 11:16:58;;;;;;;2.20;1.50;;;;;;;;;;6197599;23;20172;-88
2023/04/02 11:20:17;;;;;;;3.55;1.50;;;;;;;;;;6199052;23;20164;-89
2023/04/02 11:23:23;;;;;;;6.95;2.00;;;;;;;;;;6199039;23;20516;-86
2023/04/02 11:26:40;;;;;;;2.65;1.48;;;;;;;;;;6197224;23;20243;-89
2023/04/02 11:29:47;;;;;;;3.75;1.70;;;;;;;;;;6198435;23;20224;-88
2023/04/02 11:32:55;;;;;;;2.35;1.45;;;;;;;;;;6199369;23;20418;-88
2023/04/02 11:36:00;;;;;;;2.05;1.35;;;;;;;;;;6195725;23;20624;-90
2023/04/02 11:39:10;;;;;;;1.77;1.20;;;;;;;;;;6195742;23;20195;-89
2023/04/02 11:42:26;;;;;;;2.78;1.48;;;;;;;;;;6197934;23;20498;-91
2023/04/02 11:45:59;;;;;;;3.13;1.85;;;;;;;;;;6197646;23;20224;-92
2023/04/02 11:49:23;;;;;;;3.45;2.10;;;;;;;;;;6160976;23;20244;-91
2023/04/02 11:52:32;;;;;;;2.45;1.30;;;;;;;;;;6198644;23;20171;-90
2023/04/02 11:55:38;;;;;;;7.55;4.03;;;;;;;;;;6199693;23;20207;-91
2023/04/02 11:58:55;;;;;;;3.05;1.30;;;;;;;;;;6200035;23;20338;-89
2023/04/02 12:02:08;;;;;;;3.85;1.80;;;;;;;;;;6199676;23;20172;-89
2023/04/02 12:05:20;;;;;;;3.70;2.17;;;;;;;;;;6202636;23;20164;-90
2023/04/02 12:08:34;;;;;;;8.27;3.40;;;;;;;;;;6202945;23;20255;-89
2023/04/02 12:11:40;;;;;;;5.30;2.22;;;;;;;;;;6200298;23;20168;-91
2023/04/02 12:14:48;;;;;;;2.78;1.48;;;;;;;;;;6197600;23;20208;-89
2023/04/02 12:17:56;;;;;;;3.53;1.55;;;;;;;;;;6197069;23;20195;-87
2023/04/02 12:21:01;;;;;;;3.85;1.83;;;;;;;;;;6199504;23;20163;-91
2023/04/02 12:24:18;;;;;;;5.18;2.85;;;;;;;;;;6198222;23;20175;-89
2023/04/02 12:27:26;;;;;;;4.03;2.30;;;;;;;;;;6198101;23;20172;-89
2023/04/02 12:30:32;;;;;;;3.38;2.00;;;;;;;;;;6197935;23;20164;-89
2023/04/02 12:33:38;;;;;;;4.65;1.80;;;;;;;;;;6199090;23;20621;-86
2023/04/02 12:36:52;;;;;;;3.72;2.00;;;;;;;;;;6198387;23;20172;-90
2023/04/02 12:40:01;;;;;;;2.72;1.67;;;;;;;;;;6198782;23;20171;-92
2023/04/02 12:43:23;;;;;;;3.80;1.20;;;;;;;;;;6198852;23;20200;-89
2023/04/02 12:46:28;;;;;;;2.70;1.60;;;;;;;;;;6198937;23;20168;-87
2023/04/02 12:49:35;;;;;;;1.27;0.90;;;;;;;;;;6197151;23;20187;-89
2023/04/02 12:52:44;;;;;;;1.60;0.77;;;;;;;;;;6197609;23;20172;-90
2023/04/02 12:55:51;;;;;;;3.33;1.67;;;;;;;;;;6196061;23;20611;-90
2023/04/02 12:58:58;;;;;;;2.30;1.23;;;;;;;;;;6196656;23;20195;-88
2023/04/02 13:02:05;;;;;;;1.65;0.90;;;;;;;;;;6196886;23;20175;-87
2023/04/02 13:05:10;;;;;;;3.92;0.75;;;;;;;;;;6196253;23;20171;-88
2023/04/02 13:08:17;;;;;;;2.35;1.05;;;;;;;;;;6196674;23;20171;-90
2023/04/02 13:11:23;;;;;;;1.55;0.90;;;;;;;;;;6197435;23;20171;-90
2023/04/02 13:14:29;;;;;;;2.13;0.93;;;;;;;;;;6199120;23;20171;-88
2023/04/02 13:17:38;;;;;;;2.90;1.00;;;;;;;;;;6195375;23;20175;-87
2023/04/02 13:20:56;;;;;;;1.80;1.00;;;;;;;;;;6196630;23;20160;-89
2023/04/02 13:24:01;;;;;;;3.35;1.60;;;;;;;;;;6199238;23;20288;-91
2023/04/02 13:27:13;;;;;;;9.80;3.53;;;;;;;;;;6197163;23;20175;-91
2023/04/02 13:30:21;;;;;;;7.40;2.03;;;;;;;;;;6197089;23;20238;-87
2023/04/02 13:33:26;;;;;;;5.05;1.88;;;;;;;;;;6198305;23;20176;-89
2023/04/02 13:36:31;;;;;;;1.83;1.30;;;;;;;;;;6197816;23;20616;-90
2023/04/02 13:39:36;;;;;;;3.40;1.70;;;;;;;;;;6198370;23;20195;-91
2023/04/02 13:42:44;;;;;;;2.70;1.02;;;;;;;;;;6200013;23;20172;-91
2023/04/02 13:45:50;;;;;;;3.83;1.98;;;;;;;;;;6201516;23;20619;-87
2023/04/02 13:48:56;;;;;;;7.70;3.05;;;;;;;;;;6199384;23;20172;-87
2023/04/02 13:52:03;;;;;;;3.03;1.70;;;;;;;;;;6199906;23;20171;-92
2023/04/02 13:55:09;;;;;;;3.70;1.50;;;;;;;;;;6198699;23;20174;-88
2023/04/02 13:58:16;;;;;;;1.50;0.90;;;;;;;;;;6199712;23;20199;-89
2023/04/02 14:01:24;;;;;;;3.83;0.98;;;;;;;;;;6197862;23;20176;-87
2023/04/02 14:04:30;;;;;;;2.67;1.00;;;;;;;;;;6200474;23;20208;-89
2023/04/02 14:07:49;;;;;;;1.45;1.00;;;;;;;;;;6199174;23;20180;-88
2023/04/02 14:11:02;;;;;;;3.15;1.70;;;;;;;;;;6201367;23;20180;-89
2023/04/02 14:14:20;;;;;;;5.90;2.28;;;;;;;;;;6199794;23;20622;-87
2023/04/02 14:17:30;;;;;;;2.67;1.52;;;;;;;;;;6197859;23;20176;-88
2023/04/02 14:20:48;;;;;;;2.95;1.70;;;;;;;;;;6197249;23;20168;-89
2023/04/02 14:23:59;;;;;;;2.40;1.55;;;;;;;;;;6199571;23;20241;-88
2023/04/02 14:27:08;;;;;;;2.40;1.48;;;;;;;;;;6197524;23;20176;-89
2023/04/02 14:30:18;;;;;;;5.05;1.70;;;;;;;;;;6196382;23;20249;-89
2023/04/02 14:33:26;;;;;;;4.60;2.33;;;;;;;;;;6199218;23;20175;-86
2023/04/02 14:36:36;;;;;;;4.40;1.98;;;;;;;;;;6199136;23;20244;-89
2023/04/02 14:39:46;;;;;;;2.10;1.70;;;;;;;;;;6200761;23;20528;-92
2023/04/02 14:42:54;;;;;;;2.83;1.52;;;;;;;;;;6199746;23;20246;-94
2023/04/02 14:46:16;;;;;;;2.20;1.40;;;;;;;;;;6197025;23;20172;-89
2023/04/02 14:49:25;;;;;;;2.22;1.70;;;;;;;;;;6199647;23;20631;-88
2023/04/02 14:52:33;;;;;;;3.38;2.03;;;;;;;;;;6198446;23;20191;-89
2023/04/02 14:55:46;;;;;;;2.00;1.73;;;;;;;;;;6197590;23;20191;-89
2023/04/02 14:58:55;;;;;;;2.58;1.90;;;;;;;;;;6197458;23;20210;-87
2023/04/02 15:02:04;;;;;;;4.03;2.28;;;;;;;;;;6200669;23;20171;-88
2023/04/02 15:05:15;;;;;;;2.00;1.50;;;;;;;;;;6200441;23;20193;-88
2023/04/02 15:08:23;;;;;;;2.75;1.80;;;;;;;;;;6199350;23;20259;-88
2023/04/02 15:11:30;;;;;;;3.20;2.10;;;;;;;;;;6201081;23;20172;-91
2023/04/02 15:14:37;;;;;;;3.30;2.50;;;;;;;;;;6200472;23;20191;-87
2023/04/02 15:17:47;;;;;;;2.30;1.98;;;;;;;;;;6198476;23;20179;-89
2023/04/02 15:21:17;;;;;;;3.13;2.20;;;;;;;;;;6199526;23;20168;-90
2023/04/02 15:24:27;;;;;;;3.00;2.15;;;;;;;;;;6200240;23;20235;-90
2023/04/02 15:27:38;;;;;;;5.78;3.00;;;;;;;;;;6199967;23;20217;-91
2023/04/02 15:30:44;;;;;;;6.10;3.47;;;;;;;;;;6199582;23;20180;-91
2023/04/02 15:33:53;;;;;;;3.38;2.40;;;;;;;;;;6200733;23;20247;-90
2023/04/02 15:37:08;;;;;;;3.67;2.42;;;;;;;;;;6200249;23;20168;-89
2023/04/02 15:40:24;;;;;;;4.05;2.58;;;;;;;;;;6198990;23;20243;-91
2023/04/02 15:43:31;;;;;;;3.17;2.20;;;;;;;;;;6200445;23;20160;-93
2023/04/02 15:46:39;;;;;;;7.03;3.30;;;;;;;;;;6199127;23;20649;-87
2023/04/02 15:49:47;;;;;;;5.30;2.80;;;;;;;;;;6200042;23;20175;-90
2023/04/02 15:52:55;;;;;;;4.05;2.67;;;;;;;;;;6199941;23;20167;-88
2023/04/02 16:00:29;;;;;;;3.72;2.40;;;;;;;;;;6202034;23;20199;-88
2023/04/02 16:03:44;;;;;;;4.50;2.70;;;;;;;;;;6200600;23;20187;-89
2023/04/02 16:07:01;;;;;;;3.28;2.22;;;;;;;;;;6204798;23;20183;-90
2023/04/02 16:10:10;;;;;;;3.70;2.35;;;;;;;;;;6202628;23;20167;-91
2023/04/02 16:13:17;;;;;;;5.37;2.80;;;;;;;;;;6201885;23;20225;-90
2023/04/02 16:16:26;;;;;;;4.13;2.70;;;;;;;;;;6199318;23;20694;-89
2023/04/02 16:19:33;;;;;;;4.87;3.00;;;;;;;;;;6199966;23;20195;-88
2023/04/02 16:22:45;;;;;;;4.95;3.10;;;;;;;;;;6201125;23;20172;-91
2023/04/02 16:25:56;;;;;;;7.10;2.97;;;;;;;;;;6199665;23;20180;-89
2023/04/02 16:29:05;;;;;;;5.07;2.70;;;;;;;;;;6199057;23;20224;-90
2023/04/02 16:32:37;;;;;;;4.57;3.20;;;;;;;;;;6196561;23;20615;-92
2023/04/02 16:35:46;;;;;;;6.07;3.42;;;;;;;;;;6198639;23;20168;-92
2023/04/02 16:38:58;;;;;;;5.07;3.13;;;;;;;;;;6202146;23;20190;-91
2023/04/02 16:42:08;;;;;;;8.30;3.40;;;;;;;;;;6201899;23;20167;-92
2023/04/02 16:45:22;;;;;;;6.93;3.33;;;;;;;;;;6199124;23;20243;-90
2023/04/02 16:48:35;;;;;;;6.88;3.45;;;;;;;;;;6199852;23;20156;-90
2023/04/02 16:51:43;;;;;;;5.72;3.30;;;;;;;;;;6198738;23;20175;-91
2023/04/02 16:54:55;;;;;;;6.47;3.70;;;;;;;;;;6200659;23;20203;-91
2023/04/02 16:58:11;;;;;;;10.73;3.60;;;;;;;;;;6201165;23;20172;-89
2023/04/02 17:01:20;;;;;;;6.20;3.67;;;;;;;;;;6200335;23;20172;-90
2023/04/02 17:04:46;;;;;;;5.53;3.37;;;;;;;;;;6201777;23;20291;-90
2023/04/02 17:07:52;;;;;;;6.93;4.23;;;;;;;;;;6202040;23;20229;-88
2023/04/02 17:11:05;;;;;;;5.20;3.47;;;;;;;;;;6203756;23;20235;-89
2023/04/02 17:14:17;;;;;;;5.97;3.20;;;;;;;;;;6202137;23;20200;-90
2023/04/02 19:47:01;;;;;;;5.17;2.80;;;;;;;;;;6214119;23;20223;-91
2023/04/02 19:50:07;;;;;;;10.33;3.03;;;;;;;;;;6215613;23;20168;-89
2023/04/02 19:53:13;;;;;;;4.87;2.90;;;;;;;;;;6214673;23;20162;-90
2023/04/02 19:56:22;;;;;;;5.83;3.57;;;;;;;;;;6215129;23;20182;-91
2023/04/02 19:59:28;;;;;;;5.30;2.67;;;;;;;;;;6212481;23;20234;-88
2023/04/02 20:02:34;;;;;;;4.43;2.57;;;;;;;;;;6215337;23;20234;-90
2023/04/02 20:05:40;;;;;;;5.60;2.80;;;;;;;;;;6214233;23;20155;-92
2023/04/02 20:08:45;;;;;;;4.43;2.60;;;;;;;;;;6214913;23;20214;-90
2023/04/02 20:11:50;;;;;;;7.60;3.20;;;;;;;;;;6210452;23;20167;-92
2023/04/02 20:14:56;;;;;;;6.00;2.80;;;;;;;;;;6212338;23;20164;-88
2023/04/02 20:18:02;;;;;;;6.67;3.43;;;;;;;;;;6214486;23;20168;-88
2023/04/02 20:21:37;;;;;;;3.83;2.50;;;;;;;;;;6212673;23;20190;-90
2023/04/02 20:24:42;;;;;;;4.17;2.60;;;;;;;;;;6215346;23;20166;-90
2023/04/02 20:27:50;;;;;;;7.27;2.97;;;;;;;;;;6219939;23;20166;-87
2023/04/02 20:31:05;;;;;;;10.93;2.70;;;;;;;;;;6215663;23;20167;-91
2023/04/02 20:34:12;;;;;;;7.97;3.00;;;;;;;;;;6211445;23;20228;-88
2023/04/02 20:37:17;;;;;;;4.83;2.70;;;;;;;;;;6211691;23;20162;-90
2023/04/02 20:40:24;;;;;;;5.10;3.13;;;;;;;;;;6210796;23;20207;-88
2023/04/02 20:43:29;;;;;;;6.83;3.20;;;;;;;;;;6211500;23;20351;-92
2023/04/02 20:46:34;;;;;;;5.87;2.60;;;;;;;;;;6215251;23;20230;-89
2023/04/02 20:49:41;;;;;;;5.67;2.67;;;;;;;;;;6210539;23;20162;-92
2023/04/02 20:52:50;;;;;;;5.33;2.93;;;;;;;;;;6210665;23;20147;-91
2023/04/02 20:56:02;;;;;;;6.97;2.80;;;;;;;;;;6211257;23;20249;-91
2023/04/02 20:59:07;;;;;;;4.07;2.50;;;;;;;;;;6212625;23;20167;-91
2023/04/02 21:02:13;;;;;;;5.90;3.30;;;;;;;;;;6212880;23;20174;-92
2023/04/02 21:05:19;;;;;;;4.97;2.90;;;;;;;;;;6211026;23;20198;-89
2023/04/02 21:08:25;;;;;;;4.83;2.60;;;;;;;;;;6211750;23;20223;-94
2023/04/02 21:11:30;;;;;;;4.03;2.27;;;;;;;;;;6213367;23;20170;-91
2023/04/02 21:14:38;;;;;;;4.87;2.43;;;;;;;;;;6214595;23;20215;-88
2023/04/02 21:17:44;;;;;;;4.83;2.83;;;;;;;;;;6212223;23;20170;-91
2023/04/02 21:21:14;;;;;;;3.30;2.33;;;;;;;;;;6210457;23;20187;-90
2023/04/02 21:24:20;;;;;;;4.60;2.60;;;;;;;;;;6212307;23;20166;-91
2023/04/02 21:27:25;;;;;;;7.13;3.20;;;;;;;;;;6212715;23;20179;-90
2023/04/02 21:30:31;;;;;;;3.87;2.50;;;;;;;;;;6211255;23;20279;-92
2023/04/02 21:33:38;;;;;;;6.30;3.27;;;;;;;;;;6211220;23;20615;-91
2023/04/02 21:36:44;;;;;;;5.57;3.20;;;;;;;;;;6211518;23;20170;-90
2023/04/02 21:39:51;;;;;;;4.77;2.93;;;;;;;;;;6210752;23;20194;-90